Time;durP1;ratioP1;P1;durP2;ratioP2;P2;SDS_P1;SDS_P2;PMS_P1;PMS_P2;Temp;Humidity;BMP_temperature;BMP_pressure;BME280_temperature;BME280_humidity;BME280_pressure;Samples;Min_cycle;Max_cycle;Signal;HPM_P1;HPM_P2
2022/08/27 00:02:15;;;;;;;;;;;19.90;65.20;;;;;;5049380;28;19924;-70
2022/08/27 00:04:42;;;;;;;;;;;19.90;65.40;;;;;;5046221;28;19929;-70
2022/08/27 00:07:08;;;;;;;;;;;19.90;65.40;;;;;;5048703;28;19924;-70
2022/08/27 00:09:34;;;;;;;;;;;19.80;65.40;;;;;;5041160;28;20356;-70
2022/08/27 00:12:00;;;;;;;;;;;19.80;65.60;;;;;;5048438;28;20434;-70
2022/08/27 00:14:26;;;;;;;;;;;19.80;65.70;;;;;;5047924;28;19916;-70
2022/08/27 00:16:52;;;;;;;;;;;19.80;65.80;;;;;;5049341;28;19917;-70
2022/08/27 00:19:18;;;;;;;;;;;19.70;65.90;;;;;;5040558;28;20411;-70
2022/08/27 00:21:43;;;;;;;;;;;19.70;65.90;;;;;;5045338;28;19921;-71
2022/08/27 00:24:11;;;;;;;;;;;19.70;65.90;;;;;;5047420;28;19944;-71
2022/08/27 00:26:36;;;;;;;;;;;19.70;65.80;;;;;;5049495;28;19992;-70
2022/08/27 00:29:02;;;;;;;;;;;19.80;65.90;;;;;;5046770;28;20011;-67
2022/08/27 00:31:28;;;;;;;;;;;19.70;65.90;;;;;;5045730;28;19986;-66
2022/08/27 00:33:54;;;;;;;;;;;19.70;65.90;;;;;;5047007;28;19974;-67
2022/08/27 00:36:19;;;;;;;;;;;19.70;66.00;;;;;;5047869;28;19913;-71
2022/08/27 00:38:45;;;;;;;;;;;19.70;66.00;;;;;;5045232;28;19924;-70
2022/08/27 00:41:11;;;;;;;;;;;19.70;66.00;;;;;;5045849;28;19917;-70
2022/08/27 00:43:52;;;;;;;;;;;19.80;66.10;;;;;;5049232;28;19917;-70
2022/08/27 00:46:21;;;;;;;;;;;19.80;65.90;;;;;;5048279;28;20015;-71
2022/08/27 00:48:47;;;;;;;;;;;19.90;65.80;;;;;;5047084;28;19925;-70
2022/08/27 00:51:13;;;;;;;;;;;19.90;65.70;;;;;;5025398;28;19921;-70
2022/08/27 00:53:39;;;;;;;;;;;19.90;65.70;;;;;;5048765;28;20328;-67
2022/08/27 00:56:15;;;;;;;;;;;19.90;65.70;;;;;;5048517;28;20279;-67
2022/08/27 00:58:46;;;;;;;;;;;19.90;65.70;;;;;;5046376;28;20560;-66
2022/08/27 01:01:13;;;;;;;;;;;19.90;65.70;;;;;;5045173;28;19920;-66
2022/08/27 01:03:40;;;;;;;;;;;19.90;65.70;;;;;;5028437;28;19916;-67
2022/08/27 01:06:08;;;;;;;;;;;19.90;65.70;;;;;;5047886;28;19913;-70
2022/08/27 01:08:36;;;;;;;;;;;20.00;65.70;;;;;;5048523;28;19917;-70
2022/08/27 01:11:03;;;;;;;;;;;20.00;65.50;;;;;;5046232;28;20325;-67
2022/08/27 01:13:30;;;;;;;;;;;19.90;65.40;;;;;;5049391;28;20282;-66
2022/08/27 01:15:57;;;;;;;;;;;19.90;65.40;;;;;;5052068;28;19921;-66
2022/08/27 01:18:27;;;;;;;;;;;20.00;65.40;;;;;;5052395;28;19928;-66
2022/08/27 01:20:59;;;;;;;;;;;20.00;65.40;;;;;;5050404;28;19921;-67
2022/08/27 01:23:35;;;;;;;;;;;20.00;65.30;;;;;;5049345;28;19917;-67
2022/08/27 01:26:02;;;;;;;;;;;20.00;65.30;;;;;;5050408;28;19916;-67
2022/08/27 01:28:28;;;;;;;;;;;20.00;65.30;;;;;;5033884;28;20304;-66
2022/08/27 01:30:54;;;;;;;;;;;19.90;65.30;;;;;;5049462;28;20421;-67
2022/08/27 01:33:20;;;;;;;;;;;20.00;65.30;;;;;;5050724;28;19940;-67
2022/08/27 01:35:47;;;;;;;;;;;20.00;65.20;;;;;;5032872;28;20003;-66
2022/08/27 01:38:14;;;;;;;;;;;20.00;65.30;;;;;;5048382;28;20265;-71
2022/08/27 01:40:40;;;;;;;;;;;20.00;65.30;;;;;;5047484;28;19913;-67
2022/08/27 01:43:06;;;;;;;;;;;19.90;65.20;;;;;;5033259;28;20450;-71
2022/08/27 01:45:33;;;;;;;;;;;19.90;65.30;;;;;;5032662;28;19963;-71
2022/08/27 01:47:59;;;;;;;;;;;19.90;65.30;;;;;;5048098;28;19917;-67
2022/08/27 01:50:27;;;;;;;;;;;19.90;65.20;;;;;;5051195;28;19924;-71
2022/08/27 01:52:53;;;;;;;;;;;20.00;65.30;;;;;;5048424;28;19952;-71
2022/08/27 01:55:20;;;;;;;;;;;19.90;65.30;;;;;;5049162;28;19953;-71
2022/08/27 01:57:46;;;;;;;;;;;19.90;65.30;;;;;;5051486;28;19991;-71
2022/08/27 02:00:15;;;;;;;;;;;19.90;65.30;;;;;;5048961;28;20024;-71
2022/08/27 02:02:42;;;;;;;;;;;19.90;65.40;;;;;;5048959;28;19920;-71
2022/08/27 02:05:08;;;;;;;;;;;19.90;65.30;;;;;;5030777;28;19924;-66
2022/08/27 02:07:35;;;;;;;;;;;19.90;65.30;;;;;;5049137;28;19923;-66
2022/08/27 02:10:00;;;;;;;;;;;19.90;65.30;;;;;;5033190;28;19912;-67
2022/08/27 02:12:26;;;;;;;;;;;19.90;65.30;;;;;;5029960;28;19924;-67
2022/08/27 02:14:51;;;;;;;;;;;19.80;65.30;;;;;;5030515;28;20008;-67
2022/08/27 02:17:17;;;;;;;;;;;19.80;65.30;;;;;;5051268;28;20012;-67
2022/08/27 02:19:42;;;;;;;;;;;19.80;65.40;;;;;;5032782;28;20373;-71
2022/08/27 02:22:08;;;;;;;;;;;19.70;65.40;;;;;;5048550;28;19967;-71
2022/08/27 02:24:34;;;;;;;;;;;19.70;65.40;;;;;;5045104;28;19948;-71
2022/08/27 02:26:59;;;;;;;;;;;19.70;65.40;;;;;;5046982;28;20338;-70
2022/08/27 02:29:25;;;;;;;;;;;19.70;65.40;;;;;;5028382;28;20326;-71
2022/08/27 02:31:50;;;;;;;;;;;19.60;65.50;;;;;;5049682;28;19950;-71
2022/08/27 02:34:16;;;;;;;;;;;19.60;65.60;;;;;;5047815;28;20643;-71
2022/08/27 02:36:42;;;;;;;;;;;19.50;65.70;;;;;;5046876;28;20061;-71
2022/08/27 02:39:08;;;;;;;;;;;19.50;66.40;;;;;;5051026;28;19924;-67
2022/08/27 02:41:34;;;;;;;;;;;19.40;65.90;;;;;;5050187;28;19959;-66
2022/08/27 02:44:00;;;;;;;;;;;19.30;66.00;;;;;;5045041;28;19928;-67
2022/08/27 02:46:25;;;;;;;;;;;19.30;66.20;;;;;;5044982;28;19920;-66
2022/08/27 02:48:51;;;;;;;;;;;19.20;66.20;;;;;;5033327;28;19921;-70
2022/08/27 02:51:16;;;;;;;;;;;19.20;66.30;;;;;;5045928;28;19920;-70
2022/08/27 02:53:42;;;;;;;;;;;19.10;66.30;;;;;;5047958;28;19917;-70
2022/08/27 02:56:09;;;;;;;;;;;19.10;66.30;;;;;;5048322;28;19917;-71
2022/08/27 02:58:35;;;;;;;;;;;19.10;66.40;;;;;;5050253;28;19917;-71
2022/08/27 03:01:01;;;;;;;;;;;19.20;66.30;;;;;;5047787;28;19917;-71
2022/08/27 03:03:28;;;;;;;;;;;19.10;66.30;;;;;;5048037;28;19967;-71
2022/08/27 03:05:54;;;;;;;;;;;19.10;66.30;;;;;;5049293;28;19925;-71
2022/08/27 03:08:19;;;;;;;;;;;19.00;66.40;;;;;;5048677;28;19924;-70
2022/08/27 03:10:45;;;;;;;;;;;19.00;66.60;;;;;;5049097;28;19946;-71
2022/08/27 03:13:11;;;;;;;;;;;18.90;66.80;;;;;;5044918;28;19951;-71
2022/08/27 03:15:36;;;;;;;;;;;18.90;66.90;;;;;;5048329;28;19913;-71
2022/08/27 03:18:17;;;;;;;;;;;18.90;66.80;;;;;;5050133;28;20298;-67
2022/08/27 03:20:43;;;;;;;;;;;18.90;66.70;;;;;;5048929;28;20020;-67
2022/08/27 03:23:09;;;;;;;;;;;18.90;66.70;;;;;;5045372;28;19920;-67
2022/08/27 03:25:36;;;;;;;;;;;18.90;66.60;;;;;;5048241;28;20399;-70
2022/08/27 03:28:01;;;;;;;;;;;18.90;66.50;;;;;;5048037;28;19917;-67
2022/08/27 03:30:27;;;;;;;;;;;18.90;66.70;;;;;;5048567;28;19932;-67
2022/08/27 03:32:53;;;;;;;;;;;18.90;66.60;;;;;;5048398;28;20042;-67
2022/08/27 03:35:19;;;;;;;;;;;18.90;66.50;;;;;;5027507;28;19917;-67
2022/08/27 03:37:45;;;;;;;;;;;18.90;66.40;;;;;;5047406;28;19916;-67
2022/08/27 03:40:11;;;;;;;;;;;18.90;66.50;;;;;;5049595;28;19943;-67
2022/08/27 03:42:37;;;;;;;;;;;18.90;66.60;;;;;;5030785;28;19920;-67
2022/08/27 03:45:03;;;;;;;;;;;18.80;66.70;;;;;;5048064;28;19920;-67
2022/08/27 03:47:29;;;;;;;;;;;18.80;66.70;;;;;;5047167;28;19966;-67
2022/08/27 03:49:55;;;;;;;;;;;18.80;66.70;;;;;;5049204;28;19912;-67
2022/08/27 03:52:21;;;;;;;;;;;18.90;66.80;;;;;;5049237;28;19919;-67
2022/08/27 03:54:46;;;;;;;;;;;18.90;66.70;;;;;;5044357;28;20372;-67
2022/08/27 03:57:12;;;;;;;;;;;18.90;66.70;;;;;;5040791;28;19948;-66
2022/08/27 03:59:38;;;;;;;;;;;18.90;66.60;;;;;;5047557;28;19963;-67
2022/08/27 04:02:03;;;;;;;;;;;18.90;66.60;;;;;;5031309;28;19921;-67
2022/08/27 04:04:29;;;;;;;;;;;18.90;66.60;;;;;;5030167;28;19968;-67
2022/08/27 04:06:56;;;;;;;;;;;18.90;67.30;;;;;;5045973;28;19916;-67
2022/08/27 04:09:21;;;;;;;;;;;18.90;66.70;;;;;;5044785;28;20292;-71
2022/08/27 04:11:47;;;;;;;;;;;18.90;66.70;;;;;;5045043;28;19917;-71
2022/08/27 04:14:12;;;;;;;;;;;18.90;66.70;;;;;;5049197;28;20304;-71
2022/08/27 04:16:39;;;;;;;;;;;18.90;66.70;;;;;;5029778;28;20014;-71
2022/08/27 04:19:05;;;;;;;;;;;18.90;66.80;;;;;;5026617;28;20380;-71
2022/08/27 04:21:32;;;;;;;;;;;18.90;66.70;;;;;;5028238;28;19918;-71
2022/08/27 04:23:58;;;;;;;;;;;19.00;66.70;;;;;;5048293;28;19925;-71
2022/08/27 04:26:25;;;;;;;;;;;19.00;66.60;;;;;;5031102;28;19921;-71
2022/08/27 04:28:51;;;;;;;;;;;19.00;66.50;;;;;;5049305;28;20356;-71
2022/08/27 04:31:17;;;;;;;;;;;19.00;66.40;;;;;;5047081;28;19920;-71
2022/08/27 04:33:43;;;;;;;;;;;19.10;66.40;;;;;;5045385;28;19913;-71
2022/08/27 04:36:09;;;;;;;;;;;19.10;66.40;;;;;;5045207;28;19917;-71
2022/08/27 04:38:35;;;;;;;;;;;19.10;66.40;;;;;;5048903;28;19920;-66
2022/08/27 04:41:20;;;;;;;;;;;19.00;66.30;;;;;;5045142;28;19961;-67
2022/08/27 04:43:51;;;;;;;;;;;19.10;66.40;;;;;;5045704;28;19920;-67
2022/08/27 04:46:21;;;;;;;;;;;19.00;67.00;;;;;;5048615;28;20346;-67
2022/08/27 04:48:47;;;;;;;;;;;19.00;66.40;;;;;;5050168;28;20011;-67
2022/08/27 04:51:12;;;;;;;;;;;19.00;66.50;;;;;;5033578;28;20053;-67
2022/08/27 04:53:38;;;;;;;;;;;19.00;66.50;;;;;;5028888;28;19917;-67
2022/08/27 04:56:04;;;;;;;;;;;18.90;66.50;;;;;;5052447;28;19921;-67
2022/08/27 04:58:29;;;;;;;;;;;18.90;66.60;;;;;;5052786;28;20383;-67
2022/08/27 05:00:58;;;;;;;;;;;18.80;66.60;;;;;;5052385;28;19971;-66
2022/08/27 05:03:23;;;;;;;;;;;18.80;66.70;;;;;;5052818;28;20291;-66
2022/08/27 05:05:50;;;;;;;;;;;18.80;66.80;;;;;;5048863;28;19925;-66
2022/08/27 05:08:16;;;;;;;;;;;18.70;66.70;;;;;;5033777;28;20004;-66
2022/08/27 05:10:48;;;;;;;;;;;18.70;66.80;;;;;;5049708;28;19921;-67
2022/08/27 05:13:16;;;;;;;;;;;18.70;67.00;;;;;;5034667;28;19966;-67
2022/08/27 05:15:41;;;;;;;;;;;18.60;67.00;;;;;;5048816;28;19916;-66
2022/08/27 05:18:08;;;;;;;;;;;18.60;67.00;;;;;;5049791;28;19925;-67
2022/08/27 05:20:39;;;;;;;;;;;18.60;67.10;;;;;;5051023;28;19920;-67
2022/08/27 05:23:05;;;;;;;;;;;18.60;67.20;;;;;;5035076;28;20012;-71
2022/08/27 05:25:30;;;;;;;;;;;18.60;67.10;;;;;;5046626;28;20011;-70
2022/08/27 05:27:56;;;;;;;;;;;18.60;67.10;;;;;;5029508;28;19917;-67
2022/08/27 05:30:21;;;;;;;;;;;18.60;67.20;;;;;;5051771;28;19921;-67
2022/08/27 05:32:48;;;;;;;;;;;18.60;67.30;;;;;;5034288;28;19931;-66
2022/08/27 05:35:13;;;;;;;;;;;18.60;67.30;;;;;;5033317;28;19919;-67
2022/08/27 05:37:39;;;;;;;;;;;18.60;67.30;;;;;;5027677;28;19929;-67
2022/08/27 05:40:05;;;;;;;;;;;18.60;67.20;;;;;;5052164;28;19917;-67
2022/08/27 05:42:31;;;;;;;;;;;18.60;67.20;;;;;;5051701;28;19916;-67
2022/08/27 05:44:57;;;;;;;;;;;18.60;67.20;;;;;;5033728;28;19917;-71
2022/08/27 05:47:23;;;;;;;;;;;18.60;67.30;;;;;;5050549;28;19913;-71
2022/08/27 05:49:52;;;;;;;;;;;18.60;67.30;;;;;;5049840;28;19913;-71
2022/08/27 05:52:18;;;;;;;;;;;18.60;67.30;;;;;;5050767;28;19971;-71
2022/08/27 05:54:43;;;;;;;;;;;18.60;67.30;;;;;;5048083;28;19948;-71
2022/08/27 05:57:09;;;;;;;;;;;18.70;67.30;;;;;;5051704;28;19946;-70
2022/08/27 06:02:19;;;;;;;;;;;18.70;67.70;;;;;;5051445;28;19963;-71
2022/08/27 06:04:45;;;;;;;;;;;18.70;67.00;;;;;;5046681;28;20279;-71
2022/08/27 06:07:11;;;;;;;;;;;18.80;67.20;;;;;;5049188;28;19917;-71
2022/08/27 06:09:37;;;;;;;;;;;18.80;67.10;;;;;;5051686;28;19913;-71
2022/08/27 06:12:02;;;;;;;;;;;18.90;67.10;;;;;;5050003;28;19917;-71
2022/08/27 06:14:28;;;;;;;;;;;18.80;67.00;;;;;;5048160;28;19920;-71
2022/08/27 06:16:54;;;;;;;;;;;18.90;67.00;;;;;;5047536;28;19916;-71
2022/08/27 06:19:20;;;;;;;;;;;18.90;66.80;;;;;;5031943;28;19919;-71
2022/08/27 06:21:46;;;;;;;;;;;19.00;66.70;;;;;;5033004;28;19924;-71
2022/08/27 06:24:12;;;;;;;;;;;19.10;66.70;;;;;;5047567;28;19936;-71
2022/08/27 06:26:38;;;;;;;;;;;19.10;66.50;;;;;;5048162;28;19917;-71
2022/08/27 06:29:04;;;;;;;;;;;19.20;66.40;;;;;;5050020;28;19974;-71
2022/08/27 06:31:30;;;;;;;;;;;19.20;66.30;;;;;;5048622;28;19928;-71
2022/08/27 06:33:59;;;;;;;;;;;19.30;66.20;;;;;;5050618;28;19913;-71
2022/08/27 06:36:25;;;;;;;;;;;19.40;66.20;;;;;;5048652;28;19917;-71
2022/08/27 06:38:51;;;;;;;;;;;19.50;66.00;;;;;;5045126;28;19921;-71
2022/08/27 06:41:19;;;;;;;;;;;19.50;65.90;;;;;;5048060;28;20141;-71
2022/08/27 06:43:45;;;;;;;;;;;19.60;65.80;;;;;;5045443;28;19971;-71
2022/08/27 06:46:12;;;;;;;;;;;19.70;65.40;;;;;;5050631;28;19928;-71
2022/08/27 06:48:37;;;;;;;;;;;19.80;65.20;;;;;;5029333;28;19935;-71
2022/08/27 06:51:07;;;;;;;;;;;19.80;65.20;;;;;;5051355;28;19913;-71
2022/08/27 06:53:33;;;;;;;;;;;19.90;65.00;;;;;;5050525;28;20456;-71
2022/08/27 06:55:59;;;;;;;;;;;20.00;64.80;;;;;;5051850;28;19921;-71
2022/08/27 06:58:25;;;;;;;;;;;20.10;64.60;;;;;;5041115;28;19920;-71
2022/08/27 07:00:50;;;;;;;;;;;20.20;64.40;;;;;;5046252;28;20319;-71
2022/08/27 07:03:16;;;;;;;;;;;20.30;64.20;;;;;;5048749;28;19916;-71
2022/08/27 07:05:42;;;;;;;;;;;20.40;63.80;;;;;;5049239;28;19948;-71
2022/08/27 07:08:08;;;;;;;;;;;20.40;63.30;;;;;;5032924;28;19983;-71
2022/08/27 07:10:34;;;;;;;;;;;20.50;62.90;;;;;;5049361;28;19923;-71
2022/08/27 07:13:00;;;;;;;;;;;20.50;62.80;;;;;;5048558;28;21204;-71
2022/08/27 07:15:25;;;;;;;;;;;20.60;62.50;;;;;;5049393;28;19913;-71
2022/08/27 07:17:51;;;;;;;;;;;20.60;62.40;;;;;;5042602;28;19975;-71
2022/08/27 07:20:18;;;;;;;;;;;20.50;62.30;;;;;;5048597;28;19932;-71
2022/08/27 07:22:44;;;;;;;;;;;20.50;62.40;;;;;;5045558;28;20343;-71
2022/08/27 07:25:13;;;;;;;;;;;20.60;62.40;;;;;;5047583;28;20055;-71
2022/08/27 07:27:39;;;;;;;;;;;20.60;62.20;;;;;;5047784;28;19975;-71
2022/08/27 07:30:06;;;;;;;;;;;20.70;62.20;;;;;;5031723;28;20481;-71
2022/08/27 07:32:31;;;;;;;;;;;20.80;62.00;;;;;;5049626;28;19921;-71
2022/08/27 07:34:57;;;;;;;;;;;20.90;61.80;;;;;;5047139;28;20256;-71
2022/08/27 07:37:22;;;;;;;;;;;21.00;61.60;;;;;;5041134;28;19925;-72
2022/08/27 07:39:48;;;;;;;;;;;21.20;61.50;;;;;;5049059;28;19956;-73
2022/08/27 07:44:58;;;;;;;;;;;21.30;61.10;;;;;;5049406;28;20484;-72
2022/08/27 07:47:23;;;;;;;;;;;21.40;61.00;;;;;;5044573;28;19921;-72
2022/08/27 07:49:49;;;;;;;;;;;21.40;60.70;;;;;;5048409;28;19924;-72
2022/08/27 07:52:15;;;;;;;;;;;21.50;60.50;;;;;;5047203;28;20283;-73
2022/08/27 07:54:41;;;;;;;;;;;21.60;60.40;;;;;;5046263;28;19916;-72
2022/08/27 07:57:07;;;;;;;;;;;21.60;60.00;;;;;;5043924;28;19927;-66
2022/08/27 07:59:33;;;;;;;;;;;21.70;59.90;;;;;;5012322;28;19959;-72
2022/08/27 08:01:59;;;;;;;;;;;21.60;59.70;;;;;;5025585;28;20380;-73
2022/08/27 08:04:25;;;;;;;;;;;21.70;59.50;;;;;;5044158;28;19921;-73
2022/08/27 08:06:51;;;;;;;;;;;21.70;59.10;;;;;;5046991;28;19926;-72
2022/08/27 08:09:17;;;;;;;;;;;21.70;59.20;;;;;;5041826;28;20383;-72
2022/08/27 08:11:43;;;;;;;;;;;21.60;59.20;;;;;;5047471;28;19951;-72
2022/08/27 08:14:09;;;;;;;;;;;21.60;59.20;;;;;;5048186;28;19924;-73
2022/08/27 08:16:34;;;;;;;;;;;21.70;59.10;;;;;;5048718;28;19979;-73
2022/08/27 08:19:00;;;;;;;;;;;21.80;58.70;;;;;;5021652;28;19917;-72
2022/08/27 08:21:26;;;;;;;;;;;21.90;58.70;;;;;;5046976;28;19958;-73
2022/08/27 08:23:52;;;;;;;;;;;21.90;58.60;;;;;;5046966;28;20011;-73
2022/08/27 08:26:17;;;;;;;;;;;21.90;57.70;;;;;;5048612;28;19924;-73
2022/08/27 08:28:43;;;;;;;;;;;22.00;57.70;;;;;;5048698;28;20288;-72
2022/08/27 08:31:08;;;;;;;;;;;22.10;57.40;;;;;;5043095;28;20635;-72
2022/08/27 08:33:34;;;;;;;;;;;22.40;56.60;;;;;;5047006;28;19960;-73
2022/08/27 08:36:05;;;;;;;;;;;22.50;56.10;;;;;;5047175;28;19932;-73
2022/08/27 08:38:30;;;;;;;;;;;22.70;55.20;;;;;;5048734;28;19936;-73
2022/08/27 08:40:56;;;;;;;;;;;22.90;55.20;;;;;;5026746;28;19913;-73
2022/08/27 08:43:24;;;;;;;;;;;23.10;55.20;;;;;;5046310;28;20295;-72
2022/08/27 08:45:50;;;;;;;;;;;23.40;54.60;;;;;;5043956;28;20308;-72
2022/08/27 08:48:18;;;;;;;;;;;23.70;54.50;;;;;;5030739;28;19931;-72
2022/08/27 08:50:50;;;;;;;;;;;23.90;54.20;;;;;;5025975;28;19932;-73
2022/08/27 08:53:34;;;;;;;;;;;24.00;53.60;;;;;;5041044;28;20348;-73
2022/08/27 08:56:02;;;;;;;;;;;24.20;53.50;;;;;;5043058;28;19921;-73
2022/08/27 08:58:27;;;;;;;;;;;24.40;52.80;;;;;;5046136;28;20043;-72
2022/08/27 09:00:55;;;;;;;;;;;24.40;52.30;;;;;;5030216;28;19995;-73
2022/08/27 09:03:21;;;;;;;;;;;24.40;52.30;;;;;;5045356;28;19924;-72
2022/08/27 09:05:51;;;;;;;;;;;24.30;52.70;;;;;;5047194;28;19921;-73
2022/08/27 09:08:21;;;;;;;;;;;24.10;52.80;;;;;;5045008;28;19919;-73
2022/08/27 09:10:51;;;;;;;;;;;24.00;52.90;;;;;;5046189;28;19913;-72
2022/08/27 09:13:21;;;;;;;;;;;23.80;53.20;;;;;;5048151;28;19913;-73
2022/08/27 09:15:50;;;;;;;;;;;23.70;53.10;;;;;;5045990;28;20408;-73
2022/08/27 09:18:16;;;;;;;;;;;23.50;53.20;;;;;;5048516;28;20387;-72
2022/08/27 09:20:44;;;;;;;;;;;23.40;53.60;;;;;;5047354;28;19964;-73
2022/08/27 09:23:15;;;;;;;;;;;23.40;53.50;;;;;;5048454;28;19919;-73
2022/08/27 09:25:42;;;;;;;;;;;23.40;53.30;;;;;;5030092;28;20276;-73
2022/08/27 09:29:14;;;;;;;;;;;23.50;52.50;;;;;;5048714;28;19920;-73
2022/08/27 09:30:58;;;;;;;;;;;23.50;52.50;;;;;;5047792;28;19925;-73
2022/08/27 09:33:24;;;;;;;;;;;23.50;52.80;;;;;;5047972;28;19959;-72
2022/08/27 09:35:51;;;;;;;;;;;23.50;52.40;;;;;;5033052;28;19923;-72
2022/08/27 09:38:27;;;;;;;;;;;23.40;52.60;;;;;;5052221;28;19925;-72
2022/08/27 09:40:54;;;;;;;;;;;23.30;52.90;;;;;;5034116;28;20384;-73
2022/08/27 09:43:27;;;;;;;;;;;23.20;53.10;;;;;;5050133;28;19940;-72
2022/08/27 09:45:54;;;;;;;;;;;23.20;53.10;;;;;;5051436;28;20009;-73
2022/08/27 09:48:21;;;;;;;;;;;23.10;53.30;;;;;;5051939;28;20629;-72
2022/08/27 09:50:53;;;;;;;;;;;23.00;53.30;;;;;;5050832;28;20450;-73
2022/08/27 09:53:24;;;;;;;;;;;23.10;53.50;;;;;;5051184;28;19917;-72
2022/08/27 09:55:59;;;;;;;;;;;23.30;53.40;;;;;;5051371;28;20288;-73
2022/08/27 09:58:31;;;;;;;;;;;23.60;52.90;;;;;;5050620;28;19999;-73
2022/08/27 10:01:14;;;;;;;;;;;23.70;52.40;;;;;;5051444;28;19967;-73
2022/08/27 10:03:41;;;;;;;;;;;23.70;52.10;;;;;;5050667;28;20000;-73
2022/08/27 10:06:06;;;;;;;;;;;23.70;52.60;;;;;;5050745;28;19955;-73
2022/08/27 10:08:40;;;;;;;;;;;23.70;52.70;;;;;;5051117;28;19916;-73
2022/08/27 10:11:13;;;;;;;;;;;23.70;52.50;;;;;;5051701;28;19912;-73
2022/08/27 10:13:50;;;;;;;;;;;23.70;52.50;;;;;;5050614;28;20252;-73
2022/08/27 10:16:16;;;;;;;;;;;23.80;52.80;;;;;;5033134;28;19967;-73
2022/08/27 10:18:43;;;;;;;;;;;23.90;52.80;;;;;;5049800;28;20338;-73
2022/08/27 10:21:23;;;;;;;;;;;24.00;52.50;;;;;;5050586;28;19944;-73
2022/08/27 10:23:55;;;;;;;;;;;24.10;52.20;;;;;;5050585;28;19913;-72
2022/08/27 10:26:39;;;;;;;;;;;24.10;52.20;;;;;;5049448;28;19939;-72
2022/08/27 10:29:30;;;;;;;;;;;24.10;52.10;;;;;;5050901;28;19924;-74
2022/08/27 10:32:06;;;;;;;;;;;24.20;52.90;;;;;;5033055;28;19921;-72
2022/08/27 10:34:36;;;;;;;;;;;24.20;52.00;;;;;;5048126;28;19913;-73
2022/08/27 10:37:22;;;;;;;;;;;24.20;51.60;;;;;;5050328;28;19928;-72
2022/08/27 10:39:56;;;;;;;;;;;24.30;51.80;;;;;;5039401;28;19970;-73
2022/08/27 10:42:22;;;;;;;;;;;24.30;51.80;;;;;;5051253;28;19913;-73
2022/08/27 10:44:47;;;;;;;;;;;24.40;51.60;;;;;;5050126;28;19921;-73
2022/08/27 10:47:13;;;;;;;;;;;24.50;51.40;;;;;;5049717;28;19924;-73
2022/08/27 10:49:41;;;;;;;;;;;24.70;51.20;;;;;;5049761;28;19916;-73
2022/08/27 10:52:10;;;;;;;;;;;24.80;50.70;;;;;;5050598;28;19920;-73
2022/08/27 10:54:35;;;;;;;;;;;24.80;50.60;;;;;;5049803;28;19912;-73
2022/08/27 10:57:24;;;;;;;;;;;24.80;50.20;;;;;;5050950;28;19920;-73
2022/08/27 10:59:56;;;;;;;;;;;24.90;50.10;;;;;;5004426;28;19917;-73
2022/08/27 11:02:32;;;;;;;;;;;25.00;49.80;;;;;;5050561;28;19917;-72
2022/08/27 11:05:05;;;;;;;;;;;25.20;49.80;;;;;;5049179;28;19920;-73
2022/08/27 11:07:33;;;;;;;;;;;25.40;49.60;;;;;;5047238;28;19913;-73
2022/08/27 11:10:01;;;;;;;;;;;25.60;49.50;;;;;;5048790;28;20015;-73
2022/08/27 11:12:32;;;;;;;;;;;25.70;48.90;;;;;;5029738;28;20388;-73
2022/08/27 11:15:04;;;;;;;;;;;25.80;49.00;;;;;;5049663;28;20277;-73
2022/08/27 11:17:33;;;;;;;;;;;25.80;48.50;;;;;;5048523;28;19917;-73
2022/08/27 11:20:07;;;;;;;;;;;26.00;48.60;;;;;;5031702;28;20335;-72
2022/08/27 11:22:36;;;;;;;;;;;26.10;48.10;;;;;;5049622;28;20372;-73
2022/08/27 11:25:08;;;;;;;;;;;26.10;48.00;;;;;;5031380;28;19928;-73
2022/08/27 11:27:34;;;;;;;;;;;25.90;47.90;;;;;;5049962;28;20306;-73
2022/08/27 11:30:03;;;;;;;;;;;25.80;48.30;;;;;;5049896;28;19913;-73
2022/08/27 11:32:31;;;;;;;;;;;25.70;48.60;;;;;;5049608;28;20425;-73
2022/08/27 11:34:59;;;;;;;;;;;25.60;48.50;;;;;;5049273;28;19913;-73
2022/08/27 11:37:44;;;;;;;;;;;25.60;48.60;;;;;;5049161;28;19986;-72
2022/08/27 11:40:24;;;;;;;;;;;25.50;48.60;;;;;;5049586;28;20008;-73
2022/08/27 11:42:53;;;;;;;;;;;25.60;48.70;;;;;;5047205;28;19917;-73
2022/08/27 11:45:27;;;;;;;;;;;25.80;48.50;;;;;;5048962;28;20337;-73
2022/08/27 11:47:54;;;;;;;;;;;26.40;47.50;;;;;;5031338;28;19995;-72
2022/08/27 11:50:21;;;;;;;;;;;26.70;45.70;;;;;;5049133;28;19978;-73
2022/08/27 11:53:12;;;;;;;;;;;26.60;46.10;;;;;;5049197;28;19919;-73
2022/08/27 11:55:38;;;;;;;;;;;26.60;46.30;;;;;;5046095;28;20412;-73
2022/08/27 11:58:24;;;;;;;;;;;26.60;46.40;;;;;;5049493;28;19921;-73
2022/08/27 12:00:53;;;;;;;;;;;26.50;46.40;;;;;;5031121;28;19919;-73
2022/08/27 12:03:27;;;;;;;;;;;26.40;46.70;;;;;;5048911;28;20039;-71
2022/08/27 12:05:52;;;;;;;;;;;26.20;46.90;;;;;;5048205;28;20512;-72
2022/08/27 12:08:21;;;;;;;;;;;25.90;47.30;;;;;;5049207;28;20357;-71
2022/08/27 12:11:25;;;;;;;;;;;25.70;47.90;;;;;;5048783;28;20257;-71
2022/08/27 12:14:03;;;;;;;;;;;25.60;48.40;;;;;;4987208;28;19953;-71
2022/08/27 12:16:40;;;;;;;;;;;25.50;48.30;;;;;;4987321;28;20321;-72
2022/08/27 12:19:15;;;;;;;;;;;25.40;48.50;;;;;;5008074;28;19913;-71
2022/08/27 12:21:59;;;;;;;;;;;25.40;48.00;;;;;;5043958;28;19935;-71
2022/08/27 12:24:31;;;;;;;;;;;25.30;48.10;;;;;;5043858;28;20429;-71
2022/08/27 12:27:01;;;;;;;;;;;25.30;48.40;;;;;;5029645;28;20319;-71
2022/08/27 12:29:33;;;;;;;;;;;25.40;48.40;;;;;;5029250;28;19958;-71
2022/08/27 12:32:17;;;;;;;;;;;25.40;47.90;;;;;;5028523;28;20337;-71
2022/08/27 12:34:50;;;;;;;;;;;25.30;48.10;;;;;;5042878;28;19913;-71
2022/08/27 12:37:20;;;;;;;;;;;25.30;48.40;;;;;;5048755;28;19913;-71
2022/08/27 12:39:48;;;;;;;;;;;25.40;48.30;;;;;;5046485;28;19919;-71
2022/08/27 12:42:17;;;;;;;;;;;25.40;48.50;;;;;;5048771;28;19924;-72
2022/08/27 12:44:43;;;;;;;;;;;25.50;48.50;;;;;;5048148;28;20003;-72
2022/08/27 12:47:15;;;;;;;;;;;25.60;48.40;;;;;;5048706;28;20036;-71
2022/08/27 12:49:41;;;;;;;;;;;25.70;48.50;;;;;;5018613;28;20279;-71
2022/08/27 12:52:31;;;;;;;;;;;25.80;48.20;;;;;;5040407;28;19920;-72
2022/08/27 12:55:04;;;;;;;;;;;26.00;47.90;;;;;;5043733;28;19919;-72
2022/08/27 12:57:50;;;;;;;;;;;25.90;47.50;;;;;;5048650;28;19917;-71
2022/08/27 13:00:18;;;;;;;;;;;25.90;47.60;;;;;;5042277;28;20355;-71
2022/08/27 13:03:02;;;;;;;;;;;25.90;47.80;;;;;;5048106;28;20350;-71
2022/08/27 13:05:36;;;;;;;;;;;25.90;48.00;;;;;;5046051;28;20380;-71
2022/08/27 13:08:01;;;;;;;;;;;26.00;48.30;;;;;;5039800;28;19912;-71
2022/08/27 13:10:28;;;;;;;;;;;26.00;48.50;;;;;;5031622;28;20437;-72
2022/08/27 13:13:07;;;;;;;;;;;25.90;48.60;;;;;;5034320;28;19913;-70
2022/08/27 13:15:33;;;;;;;;;;;25.80;48.70;;;;;;5034191;28;19917;-66
2022/08/27 13:18:01;;;;;;;;;;;25.80;48.80;;;;;;5049819;28;20352;-66
2022/08/27 13:20:27;;;;;;;;;;;25.80;48.90;;;;;;5051727;28;19913;-66
2022/08/27 13:22:53;;;;;;;;;;;25.70;48.50;;;;;;5032514;28;19916;-66
2022/08/27 13:25:20;;;;;;;;;;;25.70;48.50;;;;;;5051990;28;20382;-66
2022/08/27 13:27:52;;;;;;;;;;;25.70;48.10;;;;;;5049479;28;19958;-66
2022/08/27 13:30:18;;;;;;;;;;;25.70;48.30;;;;;;5052080;28;19913;-66
2022/08/27 13:32:43;;;;;;;;;;;25.70;48.50;;;;;;5051679;28;19986;-66
2022/08/27 13:35:10;;;;;;;;;;;25.70;48.50;;;;;;5047621;28;19923;-67
2022/08/27 13:37:50;;;;;;;;;;;25.70;48.80;;;;;;5048955;28;20332;-66
2022/08/27 13:40:29;;;;;;;;;;;25.70;48.80;;;;;;5048038;28;19913;-66
2022/08/27 13:43:15;;;;;;;;;;;25.80;48.60;;;;;;5032762;28;19916;-66
2022/08/27 13:45:41;;;;;;;;;;;25.90;48.50;;;;;;5040931;28;20376;-66
2022/08/27 13:48:07;;;;;;;;;;;26.00;48.00;;;;;;5049431;28;19912;-66
2022/08/27 13:50:33;;;;;;;;;;;26.10;48.20;;;;;;5048193;28;19966;-66
2022/08/27 13:55:47;;;;;;;;;;;26.00;48.90;;;;;;5050938;28;20001;-66
2022/08/27 13:58:17;;;;;;;;;;;26.00;48.50;;;;;;5050601;28;19912;-66
2022/08/27 14:00:43;;;;;;;;;;;26.00;48.30;;;;;;5033095;28;20307;-66
2022/08/27 14:03:29;;;;;;;;;;;26.00;48.30;;;;;;5051322;28;19928;-66
2022/08/27 14:05:55;;;;;;;;;;;25.90;48.20;;;;;;5044773;28;19964;-66
2022/08/27 14:08:22;;;;;;;;;;;25.80;48.40;;;;;;5049030;28;20000;-66
2022/08/27 14:10:59;;;;;;;;;;;25.90;48.30;;;;;;5049884;28;20418;-66
2022/08/27 14:13:24;;;;;;;;;;;26.00;48.20;;;;;;5049724;28;19917;-66
2022/08/27 14:15:52;;;;;;;;;;;26.00;47.70;;;;;;5049298;28;19917;-66
2022/08/27 14:18:20;;;;;;;;;;;26.00;47.70;;;;;;5046916;28;20283;-66
2022/08/27 14:20:46;;;;;;;;;;;26.00;47.70;;;;;;5049987;28;19913;-66
2022/08/27 14:23:11;;;;;;;;;;;26.10;47.70;;;;;;5050176;28;19917;-66
2022/08/27 14:25:38;;;;;;;;;;;26.00;47.30;;;;;;5048172;28;20384;-66
2022/08/27 14:28:04;;;;;;;;;;;26.00;47.70;;;;;;5048176;28;20033;-66
2022/08/27 14:30:30;;;;;;;;;;;26.00;47.80;;;;;;5050612;28;19917;-66
2022/08/27 14:32:57;;;;;;;;;;;25.90;47.50;;;;;;5043769;28;20273;-66